Omitama, Japan
Current Conditions -  °F | °C
As of 9:00 PM on Wednesday 22 Oct 2014 (Local Time) from RJAH Reporting Station
Rain Showers Rain Showers  
Wind Chill: 55°   Ceiling: 1000
Heat Index: 55°   Visibility: 4mi
Dew Point: 52°   Wind: 10mph
Humidity: 88%   Direction: 10°N
Pressure: 29.94"   Gusts: NA
Location:  36.23°N, 140.35°E
Report Text: RJAH 221200Z 01009KT 7000 -SHRA FEW008 BKN010 OVC020 13/11 Q1014
Loading
Personal Weather Stations






























Interactive Weather Map
Tropical Storm Tracking
New forecast layout! Learn more

10-Day Weather Forecast

Advertisements
Track Severe Weather on mobile